Terminal Aerodrome Forecast
Issued by NWS Sterling, VA

Current Version | Previous Version | Text Only | Print | Product List | Glossary On
Versions: 1 2 3 4 5 6 7 8 9 10 11 12 13 14 15 16 17 18
000
FTUS41 KLWX 260500 RRA
TAFCHO
TAF
KCHO 260542Z 2606/2706 07003KT P6SM OVC110
     FM260800 VRB03KT 3SM -RA OVC040
     FM261100 06004KT 1SM RASN OVC010
     FM262000 02006KT 1/2SM RASN OVC008
     FM270000 36007KT P6SM OVC010=

USA.gov is the U.S. government's official web portal to all federal, state and local government web resources and services.